createdAt,value
2018-07-17T00:00:40.568Z,0.00
2018-07-17T00:01:40.566Z,0.00
2018-07-17T00:02:40.547Z,0.00
2018-07-17T00:03:40.535Z,0.00
2018-07-17T00:04:40.521Z,0.00
2018-07-17T00:05:40.511Z,0.00
2018-07-17T00:06:40.499Z,0.00
2018-07-17T00:07:40.487Z,0.00
2018-07-17T00:08:40.473Z,0.00
2018-07-17T00:09:40.472Z,0.00
2018-07-17T00:10:40.447Z,0.00
2018-07-17T00:11:40.435Z,0.00
2018-07-17T00:12:40.433Z,0.00
2018-07-17T00:13:40.413Z,0.00
2018-07-17T00:14:40.401Z,0.00
2018-07-17T00:15:40.395Z,0.00
2018-07-17T00:16:40.378Z,0.00
2018-07-17T00:17:40.364Z,0.00
2018-07-17T00:18:40.352Z,0.00
2018-07-17T00:19:40.337Z,0.00
2018-07-17T00:20:40.326Z,0.00
2018-07-17T00:21:40.317Z,0.00
2018-07-17T00:22:40.306Z,0.00
2018-07-17T00:23:40.288Z,0.00
2018-07-17T00:24:40.277Z,0.00
2018-07-17T00:25:40.263Z,0.00
2018-07-17T00:26:40.253Z,0.00
2018-07-17T00:27:40.242Z,0.00
2018-07-17T00:28:40.230Z,0.00
2018-07-17T00:29:40.217Z,0.00
2018-07-17T00:30:40.204Z,0.00
2018-07-17T00:31:40.197Z,0.00
2018-07-17T00:32:40.184Z,0.00
2018-07-17T00:33:40.167Z,0.00
2018-07-17T00:34:40.156Z,0.00
2018-07-17T00:35:40.144Z,0.00
2018-07-17T00:36:40.132Z,0.00
2018-07-17T00:37:40.122Z,0.00
2018-07-17T00:38:40.107Z,0.00
2018-07-17T00:39:40.096Z,0.00
2018-07-17T00:40:40.087Z,0.00
2018-07-17T00:41:40.071Z,0.00
2018-07-17T00:42:40.060Z,0.00
2018-07-17T00:43:40.048Z,0.00
2018-07-17T00:44:40.045Z,0.00
2018-07-17T00:45:40.023Z,0.00
2018-07-17T00:46:40.015Z,0.00
2018-07-17T00:47:39.999Z,0.00
2018-07-17T00:48:39.988Z,0.00
2018-07-17T00:49:39.974Z,0.00
2018-07-17T00:50:39.962Z,0.00
2018-07-17T00:51:39.951Z,0.00
2018-07-17T00:52:39.938Z,0.00
2018-07-17T00:53:39.925Z,0.00
2018-07-17T00:54:39.918Z,0.00
2018-07-17T00:55:39.911Z,0.00
2018-07-17T00:56:39.888Z,0.00
2018-07-17T00:57:39.880Z,0.00
2018-07-17T00:58:39.865Z,0.00
2018-07-17T00:59:39.856Z,0.00
2018-07-17T01:00:39.839Z,0.00
2018-07-17T01:01:39.827Z,0.00
2018-07-17T01:02:39.818Z,0.00
2018-07-17T01:03:39.808Z,0.00
2018-07-17T01:04:39.791Z,0.00
2018-07-17T01:05:39.778Z,0.00
2018-07-17T01:06:39.766Z,0.00
2018-07-17T01:07:39.758Z,0.00
2018-07-17T01:08:39.745Z,0.00
2018-07-17T01:09:39.731Z,0.00
2018-07-17T01:10:39.718Z,0.00
2018-07-17T01:11:39.706Z,0.00
2018-07-17T01:12:39.693Z,0.00
2018-07-17T01:13:39.681Z,0.00
2018-07-17T01:14:39.671Z,0.00
2018-07-17T01:15:39.658Z,0.00
2018-07-17T01:16:39.645Z,0.00
2018-07-17T01:17:39.631Z,0.00
2018-07-17T01:18:39.620Z,0.00
2018-07-17T01:19:39.612Z,0.00
2018-07-17T01:20:39.604Z,0.00
2018-07-17T01:21:39.582Z,0.00
2018-07-17T01:22:39.570Z,0.00
2018-07-17T01:23:39.560Z,0.00
2018-07-17T01:24:39.548Z,0.00
2018-07-17T01:25:39.539Z,0.00
2018-07-17T01:26:39.524Z,0.00
2018-07-17T01:27:39.510Z,0.00
2018-07-17T01:28:39.500Z,0.00
2018-07-17T01:29:39.484Z,0.00
2018-07-17T01:30:39.473Z,0.00
2018-07-17T01:31:39.462Z,0.00
2018-07-17T01:32:39.449Z,0.00
2018-07-17T01:33:39.434Z,0.00
2018-07-17T01:34:39.424Z,0.00
2018-07-17T01:35:39.417Z,0.00
2018-07-17T01:36:39.400Z,0.00
2018-07-17T01:37:39.385Z,0.00
2018-07-17T01:38:39.374Z,0.00
2018-07-17T01:39:39.363Z,0.00
2018-07-17T01:40:39.350Z,0.00
2018-07-17T01:41:39.340Z,0.00
2018-07-17T01:42:39.326Z,0.00
2018-07-17T01:43:39.313Z,0.00
2018-07-17T01:44:39.301Z,0.00
2018-07-17T01:45:39.288Z,0.00
2018-07-17T01:46:39.279Z,0.00
2018-07-17T01:47:39.266Z,0.00
2018-07-17T01:48:39.252Z,0.00
2018-07-17T01:49:39.238Z,0.00
2018-07-17T01:50:39.227Z,0.00
2018-07-17T01:51:39.214Z,0.00
2018-07-17T01:52:39.214Z,0.00
2018-07-17T01:53:39.188Z,0.00
2018-07-17T01:54:39.179Z,0.00
2018-07-17T01:55:39.165Z,0.00
2018-07-17T01:56:39.158Z,0.00
2018-07-17T01:57:39.141Z,0.00
2018-07-17T01:58:39.129Z,0.00
2018-07-17T01:59:39.117Z,0.00
2018-07-17T02:00:39.102Z,0.00
2018-07-17T02:01:39.094Z,0.00
2018-07-17T02:02:39.080Z,0.00
2018-07-17T02:03:39.065Z,0.00
2018-07-17T02:04:39.054Z,0.00
2018-07-17T02:05:39.040Z,0.00
2018-07-17T02:06:39.031Z,0.00
2018-07-17T02:07:39.023Z,0.00
2018-07-17T02:08:39.010Z,0.00
2018-07-17T02:09:38.991Z,0.00
2018-07-17T02:10:38.980Z,0.00
2018-07-17T02:11:38.971Z,0.00
2018-07-17T02:12:38.956Z,0.00
2018-07-17T02:13:38.943Z,0.00
2018-07-17T02:14:38.931Z,0.00
2018-07-17T02:15:38.919Z,0.00
2018-07-17T02:16:38.907Z,0.00
2018-07-17T02:17:38.903Z,0.00
2018-07-17T02:18:38.887Z,0.00
2018-07-17T02:19:38.869Z,0.00
2018-07-17T02:20:38.856Z,0.00
2018-07-17T02:21:38.845Z,0.00
2018-07-17T02:22:38.838Z,0.00
2018-07-17T02:23:38.822Z,0.00
2018-07-17T02:24:38.808Z,0.00
2018-07-17T02:25:38.795Z,0.00
2018-07-17T02:26:38.783Z,0.00
2018-07-17T02:27:38.772Z,0.00
2018-07-17T02:28:38.760Z,0.00
2018-07-17T02:29:38.747Z,0.00
2018-07-17T02:30:38.735Z,0.00
2018-07-17T02:31:38.731Z,0.00
2018-07-17T02:32:38.711Z,4.00
2018-07-17T02:33:38.700Z,4.00
2018-07-17T02:34:38.686Z,4.00
2018-07-17T02:35:38.675Z,0.00
2018-07-17T02:36:38.662Z,4.00
2018-07-17T02:37:38.649Z,4.00
2018-07-17T02:38:38.638Z,4.00
2018-07-17T02:39:38.625Z,4.00
2018-07-17T02:40:38.614Z,4.00
2018-07-17T02:41:38.600Z,8.00
2018-07-17T02:42:38.589Z,8.00
2018-07-17T02:43:38.580Z,8.00
2018-07-17T02:44:38.565Z,8.00
2018-07-17T02:45:38.552Z,8.00
2018-07-17T02:46:38.539Z,12.00
2018-07-17T02:47:38.527Z,16.00
2018-07-17T02:48:38.518Z,12.00
2018-07-17T02:49:38.504Z,16.00
2018-07-17T02:50:38.493Z,20.00
2018-07-17T02:51:38.478Z,20.00
2018-07-17T02:52:38.468Z,24.00
2018-07-17T02:53:38.454Z,24.00
2018-07-17T02:54:38.442Z,28.00
2018-07-17T02:55:38.436Z,32.00
2018-07-17T02:56:38.422Z,32.00
2018-07-17T02:57:38.405Z,36.00
2018-07-17T02:58:38.394Z,40.00
2018-07-17T02:59:38.382Z,44.00
2018-07-17T03:00:38.371Z,48.00
2018-07-17T03:01:38.361Z,52.00
2018-07-17T03:02:38.347Z,56.00
2018-07-17T03:03:38.339Z,56.00
2018-07-17T03:04:38.325Z,56.00
2018-07-17T03:05:38.309Z,60.00
2018-07-17T03:06:38.301Z,68.00
2018-07-17T03:07:38.289Z,76.00
2018-07-17T03:08:38.275Z,76.00
2018-07-17T03:09:38.360Z,84.00
2018-07-17T03:10:38.249Z,88.00
2018-07-17T03:11:38.238Z,100.00
2018-07-17T03:12:38.225Z,108.00
2018-07-17T03:13:38.212Z,116.00
2018-07-17T03:14:38.199Z,120.00
2018-07-17T03:15:38.190Z,128.00
2018-07-17T03:16:38.177Z,136.00
2018-07-17T03:17:38.166Z,148.00
2018-07-17T03:18:38.152Z,164.00
2018-07-17T03:19:38.139Z,180.00
2018-07-17T03:20:38.127Z,200.00
2018-07-17T03:21:38.123Z,220.00
2018-07-17T03:22:38.106Z,240.00
2018-07-17T03:23:38.136Z,260.00
2018-07-17T03:24:38.119Z,272.00
2018-07-17T03:25:38.065Z,296.00
2018-07-17T03:26:38.052Z,312.00
2018-07-17T03:27:38.043Z,332.00
2018-07-17T03:28:38.030Z,352.00
2018-07-17T03:29:38.019Z,372.00
2018-07-17T03:30:38.005Z,388.00
2018-07-17T03:31:37.995Z,408.00
2018-07-17T03:32:37.986Z,424.00
2018-07-17T03:33:37.969Z,440.00
2018-07-17T03:34:37.961Z,464.00
2018-07-17T03:35:37.946Z,476.00
2018-07-17T03:36:37.933Z,500.00
2018-07-17T03:37:37.918Z,524.00
2018-07-17T03:38:37.907Z,552.00
2018-07-17T03:39:37.896Z,580.00
2018-07-17T03:40:37.887Z,600.00
2018-07-17T03:41:37.876Z,636.00
2018-07-17T03:42:37.858Z,668.00
2018-07-17T03:43:37.847Z,704.00
2018-07-17T03:44:37.836Z,752.00
2018-07-17T03:45:37.823Z,796.00
2018-07-17T03:46:37.811Z,836.00
2018-07-17T03:47:37.798Z,872.00
2018-07-17T03:48:37.785Z,904.00
2018-07-17T03:49:37.772Z,920.00
2018-07-17T03:50:37.763Z,940.00
2018-07-17T03:51:37.754Z,972.00
2018-07-17T03:52:37.737Z,1008.00
2018-07-17T03:53:37.726Z,1036.00
2018-07-17T03:54:37.712Z,1068.00
2018-07-17T03:55:37.704Z,1092.00
2018-07-17T03:56:37.691Z,1128.00
2018-07-17T03:57:37.676Z,1164.00
2018-07-17T03:58:37.665Z,1204.00
2018-07-17T03:59:37.652Z,1240.00
2018-07-17T04:00:37.641Z,1280.00
2018-07-17T04:01:37.629Z,1316.00
2018-07-17T04:02:37.625Z,1368.00
2018-07-17T04:03:37.606Z,1424.00
2018-07-17T04:04:37.593Z,1484.00
2018-07-17T04:05:37.579Z,1540.00
2018-07-17T04:06:37.568Z,1592.00
2018-07-17T04:07:37.560Z,1632.00
2018-07-17T04:08:37.546Z,1664.00
2018-07-17T04:09:37.530Z,1688.00
2018-07-17T04:10:37.521Z,1704.00
2018-07-17T04:11:37.510Z,1732.00
2018-07-17T04:12:37.495Z,1780.00
2018-07-17T04:13:37.491Z,1812.00
2018-07-17T04:14:37.470Z,1840.00
2018-07-17T04:15:37.457Z,1856.00
2018-07-17T04:16:37.451Z,1876.00
2018-07-17T04:17:37.491Z,1900.00
2018-07-17T04:18:37.421Z,1920.00
2018-07-17T04:19:37.409Z,1944.00
2018-07-17T04:20:37.399Z,1936.00
2018-07-17T04:21:37.384Z,1916.00
2018-07-17T04:22:37.373Z,1868.00
2018-07-17T04:23:37.364Z,1840.00
2018-07-17T04:24:37.352Z,1816.00
2018-07-17T04:25:37.336Z,1772.00
2018-07-17T04:26:37.329Z,1688.00
2018-07-17T04:27:37.315Z,1576.00
2018-07-17T04:28:37.301Z,1432.00
2018-07-17T04:29:37.294Z,1280.00
2018-07-17T04:30:37.278Z,1180.00
2018-07-17T04:31:37.301Z,1104.00
2018-07-17T04:32:37.254Z,1052.00
2018-07-17T04:33:37.240Z,1048.00
2018-07-17T04:34:37.228Z,1088.00
2018-07-17T04:35:37.220Z,1168.00
2018-07-17T04:36:37.210Z,1232.00
2018-07-17T04:37:37.200Z,1300.00
2018-07-17T04:38:37.192Z,1356.00
2018-07-17T04:39:37.169Z,1392.00
2018-07-17T04:40:37.158Z,1400.00
2018-07-17T04:41:37.148Z,1424.00
2018-07-17T04:42:37.136Z,1464.00
2018-07-17T04:43:37.124Z,1536.00
2018-07-17T04:44:37.113Z,1584.00
2018-07-17T04:45:37.098Z,1628.00
2018-07-17T04:46:37.087Z,1708.00
2018-07-17T04:47:37.082Z,1804.00
2018-07-17T04:48:37.063Z,1908.00
2018-07-17T04:49:37.053Z,2032.00
2018-07-17T04:50:37.039Z,2184.00
2018-07-17T04:51:37.033Z,2388.00
2018-07-17T04:52:37.017Z,2572.00
2018-07-17T04:53:37.002Z,2740.00
2018-07-17T04:54:36.992Z,2872.00
2018-07-17T04:55:36.986Z,2980.00
2018-07-17T04:56:36.970Z,3084.00
2018-07-17T04:57:36.955Z,3116.00
2018-07-17T04:58:36.945Z,3104.00
2018-07-17T04:59:36.934Z,3104.00
2018-07-17T05:00:36.922Z,3112.00
2018-07-17T05:01:37.011Z,3124.00
2018-07-17T05:02:36.900Z,3104.00
2018-07-17T05:03:36.887Z,3068.00
2018-07-17T05:04:36.876Z,3052.00
2018-07-17T05:05:36.863Z,3056.00
2018-07-17T05:06:36.853Z,3056.00
2018-07-17T05:07:36.840Z,3064.00
2018-07-17T05:08:36.829Z,3096.00
2018-07-17T05:09:36.818Z,3164.00
2018-07-17T05:10:36.814Z,3176.00
2018-07-17T05:11:36.799Z,3192.00
2018-07-17T05:12:36.784Z,3200.00
2018-07-17T05:13:36.780Z,3176.00
2018-07-17T05:14:36.760Z,3204.00
2018-07-17T05:15:36.749Z,3240.00
2018-07-17T05:16:36.736Z,3192.00
2018-07-17T05:17:36.725Z,3156.00
2018-07-17T05:18:36.714Z,3128.00
2018-07-17T05:19:36.705Z,3108.00
2018-07-17T05:20:36.691Z,3108.00
2018-07-17T05:21:36.683Z,3124.00
2018-07-17T05:22:36.667Z,3152.00
2018-07-17T05:23:36.661Z,3220.00
2018-07-17T05:24:36.646Z,3268.00
2018-07-17T05:25:36.633Z,3332.00
2018-07-17T05:26:36.623Z,3388.00
2018-07-17T05:27:36.611Z,3432.00
2018-07-17T05:28:36.601Z,3468.00
2018-07-17T05:29:36.591Z,3496.00
2018-07-17T05:30:36.577Z,3500.00
2018-07-17T05:31:36.569Z,3496.00
2018-07-17T05:32:36.554Z,3516.00
2018-07-17T05:33:36.549Z,3548.00
2018-07-17T05:34:36.532Z,3592.00
2018-07-17T05:35:36.565Z,3652.00
2018-07-17T05:36:36.511Z,3700.00
2018-07-17T05:37:36.504Z,3752.00
2018-07-17T05:38:36.487Z,3756.00
2018-07-17T05:39:36.477Z,3764.00
2018-07-17T05:40:36.467Z,3752.00
2018-07-17T05:41:36.455Z,3748.00
2018-07-17T05:42:36.442Z,3724.00
2018-07-17T05:43:36.436Z,3704.00
2018-07-17T05:44:36.423Z,3708.00
2018-07-17T05:45:36.413Z,3728.00
2018-07-17T05:46:36.565Z,3780.00
2018-07-17T05:47:36.388Z,3828.00
2018-07-17T05:48:36.379Z,3884.00
2018-07-17T05:49:36.369Z,3948.00
2018-07-17T05:50:36.358Z,4016.00
2018-07-17T05:51:36.350Z,4092.00
2018-07-17T05:52:36.335Z,4168.00
2018-07-17T05:53:36.324Z,4260.00
2018-07-17T05:54:36.312Z,4360.00
2018-07-17T05:55:36.303Z,4456.00
2018-07-17T05:56:36.291Z,4528.00
2018-07-17T05:57:36.279Z,4608.00
2018-07-17T05:58:36.269Z,4684.00
2018-07-17T05:59:36.258Z,4760.00
2018-07-17T06:00:36.247Z,4804.00
2018-07-17T06:01:36.236Z,4812.00
2018-07-17T06:02:36.232Z,4780.00
2018-07-17T06:03:36.214Z,4764.00
2018-07-17T06:04:36.205Z,4776.00
2018-07-17T06:05:36.194Z,4812.00
2018-07-17T06:06:36.184Z,4848.00
2018-07-17T06:07:36.173Z,4872.00
2018-07-17T06:08:36.165Z,4912.00
2018-07-17T06:09:36.148Z,4940.00
2018-07-17T06:10:36.139Z,4988.00
2018-07-17T06:11:36.129Z,5052.00
2018-07-17T06:12:36.119Z,5140.00
2018-07-17T06:13:36.111Z,5224.00
2018-07-17T06:14:36.102Z,5292.00
2018-07-17T06:15:36.087Z,5328.00
2018-07-17T06:16:36.088Z,5348.00
2018-07-17T06:17:36.074Z,5324.00
2018-07-17T06:18:36.056Z,5276.00
2018-07-17T06:19:36.050Z,5248.00
2018-07-17T06:20:36.036Z,5188.00
2018-07-17T06:21:36.024Z,5136.00
2018-07-17T06:22:36.014Z,5080.00
2018-07-17T06:23:36.005Z,5024.00
2018-07-17T06:24:35.994Z,5024.00
2018-07-17T06:25:35.990Z,5048.00
2018-07-17T06:26:35.974Z,5064.00
2018-07-17T06:27:35.968Z,5096.00
2018-07-17T06:28:35.955Z,5124.00
2018-07-17T06:29:35.946Z,5168.00
2018-07-17T06:30:35.932Z,5204.00
2018-07-17T06:31:35.923Z,5188.00
2018-07-17T06:32:35.916Z,5168.00
2018-07-17T06:33:35.907Z,5176.00
2018-07-17T06:34:35.892Z,5124.00
2018-07-17T06:35:35.881Z,5084.00
2018-07-17T06:36:35.871Z,5072.00
2018-07-17T06:37:35.868Z,5072.00
2018-07-17T06:38:35.852Z,5120.00
2018-07-17T06:39:35.844Z,5124.00
2018-07-17T06:40:35.832Z,5104.00
2018-07-17T06:41:35.820Z,5084.00
2018-07-17T06:42:35.810Z,5048.00
2018-07-17T06:43:35.800Z,5040.00
2018-07-17T06:44:35.809Z,5068.00
2018-07-17T06:45:35.782Z,5104.00
2018-07-17T06:46:35.773Z,5192.00
2018-07-17T06:47:35.761Z,5292.00
2018-07-17T06:48:35.752Z,5388.00
2018-07-17T06:49:35.744Z,5484.00
2018-07-17T06:50:35.865Z,5612.00
2018-07-17T06:51:35.722Z,5720.00
2018-07-17T06:52:35.713Z,5840.00
2018-07-17T06:53:35.702Z,5936.00
2018-07-17T06:54:35.693Z,6024.00
2018-07-17T06:55:35.685Z,6140.00
2018-07-17T06:56:35.677Z,6248.00
2018-07-17T06:57:35.665Z,6356.00
2018-07-17T06:58:35.655Z,6428.00
2018-07-17T06:59:35.644Z,6536.00
2018-07-17T07:00:35.635Z,6640.00
2018-07-17T07:01:35.623Z,6736.00
2018-07-17T07:02:35.616Z,6852.00
2018-07-17T07:03:35.604Z,6972.00
2018-07-17T07:04:35.597Z,7056.00
2018-07-17T07:05:35.583Z,7084.00
2018-07-17T07:06:35.575Z,7088.00
2018-07-17T07:07:35.565Z,7124.00
2018-07-17T07:08:35.554Z,7192.00
2018-07-17T07:09:35.546Z,7272.00
2018-07-17T07:10:35.537Z,7412.00
2018-07-17T07:11:35.538Z,7588.00
2018-07-17T07:12:35.519Z,7740.00
2018-07-17T07:13:35.506Z,7896.00
2018-07-17T07:14:35.497Z,7968.00
2018-07-17T07:15:35.488Z,7984.00
2018-07-17T07:16:35.478Z,8004.00
2018-07-17T07:17:35.473Z,7996.00
2018-07-17T07:18:35.462Z,7980.00
2018-07-17T07:19:35.460Z,8000.00
2018-07-17T07:20:35.443Z,8004.00
2018-07-17T07:21:35.430Z,8048.00
2018-07-17T07:22:35.426Z,8220.00
2018-07-17T07:23:35.413Z,8312.00
2018-07-17T07:24:35.408Z,8448.00
2018-07-17T07:25:35.395Z,8632.00
2018-07-17T07:26:35.391Z,8728.00
2018-07-17T07:27:35.377Z,8816.00
2018-07-17T07:28:35.373Z,8972.00
2018-07-17T07:29:35.362Z,9096.00
2018-07-17T07:30:35.349Z,9192.00
2018-07-17T07:31:35.343Z,9412.00
2018-07-17T07:32:35.333Z,9648.00
2018-07-17T07:33:35.324Z,9952.00
2018-07-17T07:34:35.316Z,10152.00
2018-07-17T07:35:35.307Z,10312.00
2018-07-17T07:36:35.298Z,10424.00
2018-07-17T07:37:35.288Z,10456.00
2018-07-17T07:38:35.284Z,10380.00
2018-07-17T07:39:35.372Z,10388.00
2018-07-17T07:40:35.268Z,10464.00
2018-07-17T07:41:35.254Z,10568.00
2018-07-17T07:42:35.246Z,10588.00
2018-07-17T07:43:35.238Z,10572.00
2018-07-17T07:44:35.233Z,10452.00
2018-07-17T07:45:35.222Z,10364.00
2018-07-17T07:46:35.213Z,10256.00
2018-07-17T07:47:35.206Z,10244.00
2018-07-17T07:48:35.196Z,10192.00
2018-07-17T07:49:35.188Z,10228.00
2018-07-17T07:50:35.180Z,10292.00
2018-07-17T07:51:35.174Z,10352.00
2018-07-17T07:52:35.163Z,10436.00
2018-07-17T07:53:35.158Z,10528.00
2018-07-17T07:54:35.147Z,10632.00
2018-07-17T07:55:35.223Z,10712.00
2018-07-17T07:56:35.139Z,10912.00
2018-07-17T07:57:35.126Z,11184.00
2018-07-17T07:58:35.124Z,11416.00
2018-07-17T07:59:35.108Z,11784.00
2018-07-17T08:00:35.103Z,12196.00
2018-07-17T08:01:35.099Z,12896.00
2018-07-17T08:02:35.086Z,14600.00
2018-07-17T08:03:35.085Z,19136.00
2018-07-17T08:04:35.073Z,25152.00
2018-07-17T08:05:35.065Z,31008.00
2018-07-17T08:06:35.059Z,35680.00
2018-07-17T08:07:35.051Z,40160.00
2018-07-17T08:08:35.043Z,39552.00
2018-07-17T08:09:35.034Z,37120.00
2018-07-17T08:10:35.027Z,37600.00
2018-07-17T08:11:35.084Z,32704.00
2018-07-17T08:12:35.016Z,38272.00
2018-07-17T08:13:35.009Z,44064.00
2018-07-17T08:14:35.006Z,45824.00
2018-07-17T08:15:34.999Z,46304.00
2018-07-17T08:16:34.991Z,47232.00
2018-07-17T08:17:35.043Z,49344.00
2018-07-17T08:18:34.982Z,47616.00
2018-07-17T08:19:34.977Z,46272.00
2018-07-17T08:20:34.967Z,42912.00
2018-07-17T08:21:34.971Z,41280.00
2018-07-17T08:22:34.956Z,35360.00
2018-07-17T08:23:34.949Z,32800.00
2018-07-17T08:24:34.946Z,28608.00
2018-07-17T08:25:34.949Z,21760.00
2018-07-17T08:26:34.937Z,23296.00
2018-07-17T08:27:34.931Z,22912.00
2018-07-17T08:28:34.927Z,21952.00
2018-07-17T08:29:34.937Z,24416.00
2018-07-17T08:30:34.917Z,22368.00
2018-07-17T08:31:34.913Z,33056.00
2018-07-17T08:32:34.912Z,39232.00
2018-07-17T08:33:34.911Z,45984.00
2018-07-17T08:34:34.898Z,51584.00
2018-07-17T08:35:34.895Z,59584.00
2018-07-17T08:36:34.891Z,62240.00
2018-07-17T08:37:34.886Z,59328.00
2018-07-17T08:38:34.879Z,58752.00
2018-07-17T08:39:34.882Z,62560.00
2018-07-17T08:40:34.878Z,68864.00
2018-07-17T08:41:34.871Z,71008.00
2018-07-17T08:42:34.866Z,71264.00
2018-07-17T08:43:34.906Z,67840.00
2018-07-17T08:44:34.860Z,69088.00
2018-07-17T08:45:34.856Z,71776.00
2018-07-17T08:46:34.851Z,72448.00
2018-07-17T08:47:34.854Z,71776.00
2018-07-17T08:48:34.852Z,72672.00
2018-07-17T08:49:34.847Z,73792.00
2018-07-17T08:50:34.841Z,79552.00
2018-07-17T08:51:34.841Z,70240.00
2018-07-17T08:52:34.839Z,35776.00
2018-07-17T08:53:34.831Z,72320.00
2018-07-17T08:54:34.888Z,53856.00
2018-07-17T08:55:34.834Z,38464.00
2018-07-17T08:56:34.827Z,63776.00
2018-07-17T08:57:34.824Z,65344.00
2018-07-17T08:58:34.820Z,53152.00
2018-07-17T08:59:34.819Z,48448.00
2018-07-17T09:00:35.000Z,25472.00
2018-07-17T09:01:34.820Z,44192.00
2018-07-17T09:02:34.812Z,74272.00
2018-07-17T09:03:34.812Z,65728.00
2018-07-17T09:04:34.809Z,73024.00
2018-07-17T09:05:34.808Z,69024.00
2018-07-17T09:06:34.805Z,62688.00
2018-07-17T09:07:34.805Z,69248.00
2018-07-17T09:08:34.803Z,72576.00
2018-07-17T09:09:34.802Z,80480.00
2018-07-17T09:10:34.799Z,84640.00
2018-07-17T09:11:34.799Z,84512.00
2018-07-17T09:12:34.796Z,81600.00
2018-07-17T09:13:34.795Z,81280.00
2018-07-17T09:14:34.799Z,86880.00
2018-07-17T09:15:34.794Z,95424.00
2018-07-17T09:16:34.791Z,92960.00
2018-07-17T09:17:34.790Z,90592.00
2018-07-17T09:18:34.793Z,92832.00
2018-07-17T09:19:34.787Z,91456.00
2018-07-17T09:20:34.789Z,92224.00
2018-07-17T09:21:34.875Z,91456.00
2018-07-17T09:22:34.787Z,91328.00
2018-07-17T09:23:34.783Z,5668.00
2018-07-17T09:24:34.789Z,5096.00
2018-07-17T09:25:34.784Z,5044.00
2018-07-17T09:26:34.782Z,5000.00
2018-07-17T09:27:34.781Z,5020.00
2018-07-17T09:28:34.780Z,5008.00
2018-07-17T09:29:34.788Z,4988.00
2018-07-17T09:30:34.779Z,4980.00
2018-07-17T09:31:34.777Z,4976.00
2018-07-17T09:32:34.777Z,4964.00
2018-07-17T09:33:34.780Z,4996.00
2018-07-17T09:34:34.779Z,5008.00
2018-07-17T09:35:34.774Z,5000.00
2018-07-17T09:36:34.770Z,4992.00
2018-07-17T09:37:34.771Z,4964.00
2018-07-17T09:38:34.777Z,4968.00
2018-07-17T09:39:34.767Z,4928.00
2018-07-17T09:40:34.766Z,4900.00
2018-07-17T09:41:34.772Z,4912.00
2018-07-17T09:42:34.761Z,4916.00
2018-07-17T09:43:34.761Z,4916.00
2018-07-17T09:44:34.756Z,4892.00
2018-07-17T09:45:34.756Z,4888.00
2018-07-17T09:46:34.752Z,4920.00
2018-07-17T09:47:34.756Z,4916.00
2018-07-17T09:48:34.750Z,4912.00
2018-07-17T09:49:34.746Z,4920.00
2018-07-17T09:50:34.744Z,4944.00
2018-07-17T09:51:34.743Z,4976.00
2018-07-17T09:52:34.740Z,4972.00
2018-07-17T09:53:34.738Z,5012.00
2018-07-17T09:54:34.734Z,5044.00
2018-07-17T09:55:34.730Z,5072.00
2018-07-17T09:56:34.740Z,5080.00
2018-07-17T09:57:34.727Z,5104.00
2018-07-17T09:58:34.722Z,5136.00
2018-07-17T09:59:34.719Z,5128.00
2018-07-17T10:00:34.717Z,5124.00
2018-07-17T10:01:34.714Z,5104.00
2018-07-17T10:02:34.709Z,5092.00
2018-07-17T10:03:34.709Z,5044.00
2018-07-17T10:04:34.704Z,5000.00
2018-07-17T10:05:34.707Z,5116.00
2018-07-17T10:06:34.698Z,5232.00
2018-07-17T10:07:34.693Z,5272.00
2018-07-17T10:08:34.690Z,5308.00
2018-07-17T10:09:34.741Z,5400.00
2018-07-17T10:10:34.687Z,5488.00
2018-07-17T10:11:34.682Z,5524.00
2018-07-17T10:12:34.677Z,5568.00
2018-07-17T10:13:34.676Z,5584.00
2018-07-17T10:14:34.687Z,5504.00
2018-07-17T10:15:34.670Z,5192.00
2018-07-17T10:16:34.665Z,4916.00
2018-07-17T10:17:34.663Z,5288.00
2018-07-17T10:18:34.660Z,5712.00
2018-07-17T10:19:34.659Z,5864.00
2018-07-17T10:20:34.655Z,5916.00
2018-07-17T10:21:34.647Z,5928.00
2018-07-17T10:22:34.646Z,5752.00
2018-07-17T10:23:34.642Z,5364.00
2018-07-17T10:24:34.634Z,5700.00
2018-07-17T10:25:34.632Z,5620.00
2018-07-17T10:26:34.664Z,5756.00
2018-07-17T10:27:34.622Z,5736.00
2018-07-17T10:28:34.623Z,5780.00
2018-07-17T10:29:34.615Z,5532.00
2018-07-17T10:30:34.610Z,5856.00
2018-07-17T10:31:34.622Z,5984.00
2018-07-17T10:32:34.605Z,5992.00
2018-07-17T10:33:34.599Z,5904.00
2018-07-17T10:34:34.595Z,5636.00
2018-07-17T10:35:34.593Z,4900.00
2018-07-17T10:36:34.588Z,5792.00
2018-07-17T10:37:34.584Z,6048.00
2018-07-17T10:38:34.599Z,6100.00
2018-07-17T10:39:34.575Z,6080.00
2018-07-17T10:40:34.574Z,6012.00
2018-07-17T10:41:34.568Z,6024.00
2018-07-17T10:42:34.568Z,6064.00
2018-07-17T10:43:34.559Z,6080.00
2018-07-17T10:44:34.555Z,6040.00
2018-07-17T10:45:34.550Z,5936.00
2018-07-17T10:46:34.553Z,5896.00
2018-07-17T10:47:34.605Z,5860.00
2018-07-17T10:48:34.540Z,5960.00
2018-07-17T10:49:34.535Z,6260.00
2018-07-17T10:50:34.529Z,6044.00
2018-07-17T10:51:34.528Z,4836.00
2018-07-17T10:52:34.522Z,6132.00
2018-07-17T10:53:34.517Z,6276.00
2018-07-17T10:54:34.515Z,6420.00
2018-07-17T10:55:34.513Z,6696.00
2018-07-17T10:56:34.513Z,6664.00
2018-07-17T10:57:34.502Z,6728.00
2018-07-17T10:58:34.498Z,6784.00
2018-07-17T10:59:34.492Z,6900.00
2018-07-17T11:00:34.489Z,6888.00
2018-07-17T11:01:34.492Z,5348.00
2018-07-17T11:02:34.481Z,6464.00
2018-07-17T11:03:34.476Z,7068.00
2018-07-17T11:04:34.477Z,6824.00
2018-07-17T11:05:34.466Z,6964.00
2018-07-17T11:06:34.463Z,6956.00
2018-07-17T11:07:34.462Z,6876.00
2018-07-17T11:08:34.504Z,7092.00
2018-07-17T11:09:34.450Z,7748.00
2018-07-17T11:10:34.503Z,6788.00
2018-07-17T11:11:34.440Z,5188.00
2018-07-17T11:12:34.446Z,5700.00
2018-07-17T11:13:34.434Z,7168.00
2018-07-17T11:14:34.434Z,7080.00
2018-07-17T11:15:34.425Z,7244.00
2018-07-17T11:16:34.424Z,7644.00
2018-07-17T11:17:34.414Z,7532.00
2018-07-17T11:18:34.410Z,7344.00
2018-07-17T11:19:34.411Z,6460.00
2018-07-17T11:20:34.402Z,6940.00
2018-07-17T11:21:34.398Z,7008.00
2018-07-17T11:22:34.394Z,7252.00
2018-07-17T11:23:34.391Z,7408.00
2018-07-17T11:24:34.391Z,7476.00
2018-07-17T11:25:34.381Z,7328.00
2018-07-17T11:26:34.383Z,7700.00
2018-07-17T11:27:34.375Z,7724.00
2018-07-17T11:28:34.380Z,7584.00
2018-07-17T11:29:34.366Z,7584.00
2018-07-17T11:30:34.359Z,7192.00
2018-07-17T11:31:34.356Z,7144.00
2018-07-17T11:32:34.353Z,7016.00
2018-07-17T11:33:34.348Z,7088.00
2018-07-17T11:34:34.348Z,7148.00
2018-07-17T11:35:34.345Z,7336.00
2018-07-17T11:36:34.336Z,8028.00
2018-07-17T11:37:34.333Z,8724.00
2018-07-17T11:38:34.333Z,8584.00
2018-07-17T11:39:34.324Z,7184.00
2018-07-17T11:40:34.319Z,6328.00
2018-07-17T11:41:34.315Z,8900.00
2018-07-17T11:42:34.311Z,9444.00
2018-07-17T11:43:34.308Z,8404.00
2018-07-17T11:44:34.306Z,8164.00
2018-07-17T11:45:34.303Z,9036.00
2018-07-17T11:46:34.295Z,9096.00
2018-07-17T11:47:34.294Z,8568.00
2018-07-17T11:48:34.289Z,8052.00
2018-07-17T11:49:34.281Z,8044.00
2018-07-17T11:50:34.276Z,8092.00
2018-07-17T11:51:34.270Z,8088.00
2018-07-17T11:52:34.268Z,8376.00
2018-07-17T11:53:34.265Z,8280.00
2018-07-17T11:54:34.262Z,10288.00
2018-07-17T11:55:34.261Z,10460.00
2018-07-17T11:56:34.252Z,11168.00
2018-07-17T11:57:34.252Z,6560.00
2018-07-17T11:58:34.244Z,9812.00
2018-07-17T11:59:34.290Z,10528.00
2018-07-17T12:00:34.236Z,10652.00
2018-07-17T12:01:34.232Z,10720.00
2018-07-17T12:02:34.229Z,11444.00
2018-07-17T12:03:34.225Z,12192.00
2018-07-17T12:04:34.221Z,12604.00
2018-07-17T12:05:34.231Z,13560.00
2018-07-17T12:06:34.212Z,14592.00
2018-07-17T12:07:34.208Z,22944.00
2018-07-17T12:08:34.204Z,42432.00
2018-07-17T12:09:34.203Z,44448.00
2018-07-17T12:10:34.196Z,18752.00
2018-07-17T12:11:34.194Z,17472.00
2018-07-17T12:12:34.225Z,18016.00
2018-07-17T12:13:34.195Z,18016.00
2018-07-17T12:14:34.196Z,12144.00
2018-07-17T12:15:34.232Z,15036.00
2018-07-17T12:16:34.179Z,28096.00
2018-07-17T12:17:34.175Z,23072.00
2018-07-17T12:18:34.180Z,76128.00
2018-07-17T12:19:34.174Z,45376.00